sensor_id;sensor_type;location;lat;lon;timestamp;P1;durP1;ratioP1;P2;durP2;ratioP2
10150;SDS011;5116;52.318;4.644;2022-11-20T00:00:24;2.40;;;2.07;;
10150;SDS011;5116;52.318;4.644;2022-11-20T00:02:53;2.13;;;1.93;;
10150;SDS011;5116;52.318;4.644;2022-11-20T00:05:20;1.70;;;1.60;;
10150;SDS011;5116;52.318;4.644;2022-11-20T00:07:47;1.93;;;1.83;;
10150;SDS011;5116;52.318;4.644;2022-11-20T00:10:16;2.90;;;2.23;;
10150;SDS011;5116;52.318;4.644;2022-11-20T00:12:43;4.07;;;2.10;;
10150;SDS011;5116;52.318;4.644;2022-11-20T00:15:11;4.90;;;2.30;;
10150;SDS011;5116;52.318;4.644;2022-11-20T00:17:38;2.60;;;2.40;;
10150;SDS011;5116;52.318;4.644;2022-11-20T00:20:06;2.23;;;1.87;;
10150;SDS011;5116;52.318;4.644;2022-11-20T00:22:33;3.97;;;1.97;;
10150;SDS011;5116;52.318;4.644;2022-11-20T00:25:00;2.30;;;1.70;;
10150;SDS011;5116;52.318;4.644;2022-11-20T00:27:28;1.70;;;1.60;;
10150;SDS011;5116;52.318;4.644;2022-11-20T00:29:55;1.77;;;1.57;;
10150;SDS011;5116;52.318;4.644;2022-11-20T00:32:23;4.03;;;2.60;;
10150;SDS011;5116;52.318;4.644;2022-11-20T00:34:50;2.77;;;2.07;;
10150;SDS011;5116;52.318;4.644;2022-11-20T00:37:17;1.97;;;1.67;;
10150;SDS011;5116;52.318;4.644;2022-11-20T00:39:45;2.30;;;2.10;;
10150;SDS011;5116;52.318;4.644;2022-11-20T00:42:12;2.13;;;1.93;;
10150;SDS011;5116;52.318;4.644;2022-11-20T00:44:40;2.23;;;2.03;;
10150;SDS011;5116;52.318;4.644;2022-11-20T00:47:07;2.10;;;1.90;;
10150;SDS011;5116;52.318;4.644;2022-11-20T00:49:35;2.53;;;2.33;;
10150;SDS011;5116;52.318;4.644;2022-11-20T00:52:02;2.27;;;1.87;;
10150;SDS011;5116;52.318;4.644;2022-11-20T00:54:29;2.50;;;2.30;;
10150;SDS011;5116;52.318;4.644;2022-11-20T00:56:57;1.70;;;1.60;;
10150;SDS011;5116;52.318;4.644;2022-11-20T00:59:24;2.33;;;2.13;;
10150;SDS011;5116;52.318;4.644;2022-11-20T01:01:51;1.87;;;1.77;;
10150;SDS011;5116;52.318;4.644;2022-11-20T01:04:19;3.33;;;1.90;;
10150;SDS011;5116;52.318;4.644;2022-11-20T01:06:46;2.07;;;1.87;;
10150;SDS011;5116;52.318;4.644;2022-11-20T01:09:14;2.20;;;1.90;;
10150;SDS011;5116;52.318;4.644;2022-11-20T01:11:42;1.90;;;1.80;;
10150;SDS011;5116;52.318;4.644;2022-11-20T01:14:11;2.93;;;2.33;;
10150;SDS011;5116;52.318;4.644;2022-11-20T01:16:40;2.53;;;2.30;;
10150;SDS011;5116;52.318;4.644;2022-11-20T01:19:12;2.37;;;2.17;;
10150;SDS011;5116;52.318;4.644;2022-11-20T01:21:45;1.43;;;1.33;;
10150;SDS011;5116;52.318;4.644;2022-11-20T01:24:14;2.77;;;1.87;;
10150;SDS011;5116;52.318;4.644;2022-11-20T01:26:42;4.43;;;2.10;;
10150;SDS011;5116;52.318;4.644;2022-11-20T01:29:17;2.27;;;2.07;;
10150;SDS011;5116;52.318;4.644;2022-11-20T01:31:46;3.13;;;2.20;;
10150;SDS011;5116;52.318;4.644;2022-11-20T01:34:16;1.67;;;1.57;;
10150;SDS011;5116;52.318;4.644;2022-11-20T01:36:43;2.50;;;2.07;;
10150;SDS011;5116;52.318;4.644;2022-11-20T01:39:12;2.90;;;1.93;;
10150;SDS011;5116;52.318;4.644;2022-11-20T01:41:40;4.90;;;2.70;;
10150;SDS011;5116;52.318;4.644;2022-11-20T01:47:22;1.73;;;1.40;;
10150;SDS011;5116;52.318;4.644;2022-11-20T01:50:10;2.33;;;2.13;;
10150;SDS011;5116;52.318;4.644;2022-11-20T01:52:40;6.57;;;2.20;;
10150;SDS011;5116;52.318;4.644;2022-11-20T01:55:14;2.10;;;1.83;;
10150;SDS011;5116;52.318;4.644;2022-11-20T01:57:42;2.60;;;2.40;;
10150;SDS011;5116;52.318;4.644;2022-11-20T02:00:13;2.20;;;1.73;;
10150;SDS011;5116;52.318;4.644;2022-11-20T02:02:42;2.77;;;2.57;;
10150;SDS011;5116;52.318;4.644;2022-11-20T02:05:16;2.13;;;2.00;;
10150;SDS011;5116;52.318;4.644;2022-11-20T02:07:44;2.97;;;2.37;;
10150;SDS011;5116;52.318;4.644;2022-11-20T02:10:12;1.93;;;1.73;;
10150;SDS011;5116;52.318;4.644;2022-11-20T02:12:40;2.10;;;1.90;;
10150;SDS011;5116;52.318;4.644;2022-11-20T02:15:26;1.50;;;1.40;;
10150;SDS011;5116;52.318;4.644;2022-11-20T02:17:56;1.70;;;1.60;;
10150;SDS011;5116;52.318;4.644;2022-11-20T02:20:23;1.80;;;1.70;;
10150;SDS011;5116;52.318;4.644;2022-11-20T02:22:53;2.03;;;1.70;;
10150;SDS011;5116;52.318;4.644;2022-11-20T02:25:21;2.50;;;2.30;;
10150;SDS011;5116;52.318;4.644;2022-11-20T02:27:50;3.73;;;2.00;;
10150;SDS011;5116;52.318;4.644;2022-11-20T02:30:18;2.50;;;2.20;;
10150;SDS011;5116;52.318;4.644;2022-11-20T02:32:46;2.30;;;2.10;;
10150;SDS011;5116;52.318;4.644;2022-11-20T02:37:47;1.83;;;1.73;;
10150;SDS011;5116;52.318;4.644;2022-11-20T02:40:15;2.37;;;1.87;;
10150;SDS011;5116;52.318;4.644;2022-11-20T02:42:43;1.83;;;1.73;;
10150;SDS011;5116;52.318;4.644;2022-11-20T02:45:11;2.27;;;1.77;;
10150;SDS011;5116;52.318;4.644;2022-11-20T02:47:38;2.43;;;1.77;;
10150;SDS011;5116;52.318;4.644;2022-11-20T02:50:08;2.43;;;2.07;;
10150;SDS011;5116;52.318;4.644;2022-11-20T02:52:36;3.03;;;2.17;;
10150;SDS011;5116;52.318;4.644;2022-11-20T02:55:03;4.20;;;2.13;;
10150;SDS011;5116;52.318;4.644;2022-11-20T02:57:31;3.17;;;2.37;;
10150;SDS011;5116;52.318;4.644;2022-11-20T02:59:58;3.53;;;2.47;;
10150;SDS011;5116;52.318;4.644;2022-11-20T03:02:29;2.20;;;1.63;;
10150;SDS011;5116;52.318;4.644;2022-11-20T03:04:56;2.07;;;1.87;;
10150;SDS011;5116;52.318;4.644;2022-11-20T03:07:24;3.50;;;2.30;;
10150;SDS011;5116;52.318;4.644;2022-11-20T03:09:51;2.23;;;2.03;;
10150;SDS011;5116;52.318;4.644;2022-11-20T03:12:19;2.17;;;1.97;;
10150;SDS011;5116;52.318;4.644;2022-11-20T03:14:46;3.73;;;2.63;;
10150;SDS011;5116;52.318;4.644;2022-11-20T03:17:18;2.10;;;2.00;;
10150;SDS011;5116;52.318;4.644;2022-11-20T03:19:46;2.30;;;2.10;;
10150;SDS011;5116;52.318;4.644;2022-11-20T03:22:13;3.87;;;2.30;;
10150;SDS011;5116;52.318;4.644;2022-11-20T03:24:40;2.03;;;1.57;;
10150;SDS011;5116;52.318;4.644;2022-11-20T03:27:08;1.93;;;1.80;;
10150;SDS011;5116;52.318;4.644;2022-11-20T03:29:35;2.30;;;2.10;;
10150;SDS011;5116;52.318;4.644;2022-11-20T03:32:03;2.13;;;1.93;;
10150;SDS011;5116;52.318;4.644;2022-11-20T03:34:30;2.60;;;1.70;;
10150;SDS011;5116;52.318;4.644;2022-11-20T03:36:57;2.00;;;1.90;;
10150;SDS011;5116;52.318;4.644;2022-11-20T03:39:25;2.60;;;2.40;;
10150;SDS011;5116;52.318;4.644;2022-11-20T03:41:53;1.50;;;1.40;;
10150;SDS011;5116;52.318;4.644;2022-11-20T03:44:21;3.53;;;2.53;;
10150;SDS011;5116;52.318;4.644;2022-11-20T03:46:49;2.37;;;1.90;;
10150;SDS011;5116;52.318;4.644;2022-11-20T03:49:16;1.93;;;1.80;;
10150;SDS011;5116;52.318;4.644;2022-11-20T03:51:44;6.43;;;2.77;;
10150;SDS011;5116;52.318;4.644;2022-11-20T03:54:11;3.63;;;1.97;;
10150;SDS011;5116;52.318;4.644;2022-11-20T03:56:39;2.17;;;2.00;;
10150;SDS011;5116;52.318;4.644;2022-11-20T03:59:06;4.17;;;2.00;;
10150;SDS011;5116;52.318;4.644;2022-11-20T04:01:35;2.87;;;2.13;;
10150;SDS011;5116;52.318;4.644;2022-11-20T04:04:03;2.23;;;2.03;;
10150;SDS011;5116;52.318;4.644;2022-11-20T04:06:35;3.43;;;1.90;;
10150;SDS011;5116;52.318;4.644;2022-11-20T04:09:04;3.93;;;2.30;;
10150;SDS011;5116;52.318;4.644;2022-11-20T04:11:33;2.63;;;1.90;;
10150;SDS011;5116;52.318;4.644;2022-11-20T04:14:02;2.57;;;2.00;;
10150;SDS011;5116;52.318;4.644;2022-11-20T04:16:31;2.53;;;1.77;;
10150;SDS011;5116;52.318;4.644;2022-11-20T04:18:59;2.83;;;2.50;;
10150;SDS011;5116;52.318;4.644;2022-11-20T04:21:29;2.03;;;1.70;;
10150;SDS011;5116;52.318;4.644;2022-11-20T04:23:56;1.90;;;1.80;;
10150;SDS011;5116;52.318;4.644;2022-11-20T04:26:25;2.57;;;2.37;;
10150;SDS011;5116;52.318;4.644;2022-11-20T04:28:53;2.03;;;1.93;;
10150;SDS011;5116;52.318;4.644;2022-11-20T04:31:21;2.10;;;1.80;;
10150;SDS011;5116;52.318;4.644;2022-11-20T04:33:49;3.03;;;2.07;;
10150;SDS011;5116;52.318;4.644;2022-11-20T04:36:18;3.90;;;2.27;;
10150;SDS011;5116;52.318;4.644;2022-11-20T04:38:45;2.20;;;2.03;;
10150;SDS011;5116;52.318;4.644;2022-11-20T04:41:22;3.30;;;2.20;;
10150;SDS011;5116;52.318;4.644;2022-11-20T04:43:50;1.80;;;1.70;;
10150;SDS011;5116;52.318;4.644;2022-11-20T04:46:19;1.70;;;1.60;;
10150;SDS011;5116;52.318;4.644;2022-11-20T04:48:47;4.27;;;2.63;;
10150;SDS011;5116;52.318;4.644;2022-11-20T04:51:17;1.80;;;1.60;;
10150;SDS011;5116;52.318;4.644;2022-11-20T04:53:45;4.57;;;2.63;;
10150;SDS011;5116;52.318;4.644;2022-11-20T04:56:15;2.70;;;1.90;;
10150;SDS011;5116;52.318;4.644;2022-11-20T04:58:43;1.87;;;1.73;;
10150;SDS011;5116;52.318;4.644;2022-11-20T05:01:11;2.27;;;2.07;;
10150;SDS011;5116;52.318;4.644;2022-11-20T05:03:42;3.30;;;2.13;;
10150;SDS011;5116;52.318;4.644;2022-11-20T05:06:13;2.17;;;1.97;;
10150;SDS011;5116;52.318;4.644;2022-11-20T05:08:41;3.37;;;2.40;;
10150;SDS011;5116;52.318;4.644;2022-11-20T05:11:10;1.77;;;1.67;;
10150;SDS011;5116;52.318;4.644;2022-11-20T05:13:37;3.43;;;1.90;;
10150;SDS011;5116;52.318;4.644;2022-11-20T05:16:06;1.87;;;1.77;;
10150;SDS011;5116;52.318;4.644;2022-11-20T05:18:34;2.17;;;1.97;;
10150;SDS011;5116;52.318;4.644;2022-11-20T05:21:02;2.93;;;2.07;;
10150;SDS011;5116;52.318;4.644;2022-11-20T05:23:30;3.13;;;2.10;;
10150;SDS011;5116;52.318;4.644;2022-11-20T05:25:57;1.97;;;1.77;;
10150;SDS011;5116;52.318;4.644;2022-11-20T05:28:28;2.03;;;1.93;;
10150;SDS011;5116;52.318;4.644;2022-11-20T05:30:55;2.30;;;2.10;;
10150;SDS011;5116;52.318;4.644;2022-11-20T05:33:23;2.83;;;1.73;;
10150;SDS011;5116;52.318;4.644;2022-11-20T05:35:50;2.60;;;2.27;;
10150;SDS011;5116;52.318;4.644;2022-11-20T05:38:18;2.27;;;1.90;;
10150;SDS011;5116;52.318;4.644;2022-11-20T05:40:45;2.33;;;1.97;;
10150;SDS011;5116;52.318;4.644;2022-11-20T05:43:12;2.37;;;2.17;;
10150;SDS011;5116;52.318;4.644;2022-11-20T05:45:40;1.97;;;1.73;;
10150;SDS011;5116;52.318;4.644;2022-11-20T05:48:07;3.27;;;2.27;;
10150;SDS011;5116;52.318;4.644;2022-11-20T05:50:35;2.33;;;2.13;;
10150;SDS011;5116;52.318;4.644;2022-11-20T05:53:03;2.67;;;2.20;;
10150;SDS011;5116;52.318;4.644;2022-11-20T05:55:30;2.50;;;2.30;;
10150;SDS011;5116;52.318;4.644;2022-11-20T05:57:58;3.40;;;2.07;;
10150;SDS011;5116;52.318;4.644;2022-11-20T06:00:25;3.27;;;2.27;;
10150;SDS011;5116;52.318;4.644;2022-11-20T06:02:53;3.73;;;2.47;;
10150;SDS011;5116;52.318;4.644;2022-11-20T06:05:20;2.30;;;2.10;;
10150;SDS011;5116;52.318;4.644;2022-11-20T06:07:48;4.13;;;2.40;;
10150;SDS011;5116;52.318;4.644;2022-11-20T06:10:15;2.90;;;2.43;;
10150;SDS011;5116;52.318;4.644;2022-11-20T06:12:43;3.00;;;2.43;;
10150;SDS011;5116;52.318;4.644;2022-11-20T06:15:10;2.07;;;1.87;;
10150;SDS011;5116;52.318;4.644;2022-11-20T06:17:37;2.27;;;2.00;;
10150;SDS011;5116;52.318;4.644;2022-11-20T06:20:05;2.30;;;2.20;;
10150;SDS011;5116;52.318;4.644;2022-11-20T06:22:33;3.47;;;2.73;;
10150;SDS011;5116;52.318;4.644;2022-11-20T06:25:00;3.47;;;2.00;;
10150;SDS011;5116;52.318;4.644;2022-11-20T06:27:28;2.37;;;1.90;;
10150;SDS011;5116;52.318;4.644;2022-11-20T06:29:55;2.60;;;2.17;;
10150;SDS011;5116;52.318;4.644;2022-11-20T06:32:22;2.77;;;1.97;;
10150;SDS011;5116;52.318;4.644;2022-11-20T06:34:50;2.40;;;2.20;;
10150;SDS011;5116;52.318;4.644;2022-11-20T06:37:17;3.03;;;2.47;;
10150;SDS011;5116;52.318;4.644;2022-11-20T06:39:47;2.33;;;1.80;;
10150;SDS011;5116;52.318;4.644;2022-11-20T06:42:14;2.23;;;1.60;;
10150;SDS011;5116;52.318;4.644;2022-11-20T06:44:41;2.97;;;2.33;;
10150;SDS011;5116;52.318;4.644;2022-11-20T06:47:09;4.13;;;2.13;;
10150;SDS011;5116;52.318;4.644;2022-11-20T06:49:36;1.73;;;1.63;;
10150;SDS011;5116;52.318;4.644;2022-11-20T06:52:05;1.70;;;1.60;;
10150;SDS011;5116;52.318;4.644;2022-11-20T06:54:32;2.27;;;1.90;;
10150;SDS011;5116;52.318;4.644;2022-11-20T06:57:00;1.93;;;1.83;;
10150;SDS011;5116;52.318;4.644;2022-11-20T06:59:27;4.57;;;2.60;;
10150;SDS011;5116;52.318;4.644;2022-11-20T07:01:55;2.13;;;1.87;;
10150;SDS011;5116;52.318;4.644;2022-11-20T07:04:23;2.70;;;2.17;;
10150;SDS011;5116;52.318;4.644;2022-11-20T07:06:50;3.57;;;2.23;;
10150;SDS011;5116;52.318;4.644;2022-11-20T07:09:18;2.40;;;2.20;;
10150;SDS011;5116;52.318;4.644;2022-11-20T07:11:45;2.27;;;1.90;;
10150;SDS011;5116;52.318;4.644;2022-11-20T07:14:12;2.43;;;2.13;;
10150;SDS011;5116;52.318;4.644;2022-11-20T07:16:40;3.17;;;2.43;;
10150;SDS011;5116;52.318;4.644;2022-11-20T07:19:07;3.33;;;1.93;;
10150;SDS011;5116;52.318;4.644;2022-11-20T07:21:35;2.57;;;2.13;;
10150;SDS011;5116;52.318;4.644;2022-11-20T07:24:03;2.40;;;2.17;;
10150;SDS011;5116;52.318;4.644;2022-11-20T07:26:31;2.17;;;1.73;;
10150;SDS011;5116;52.318;4.644;2022-11-20T07:28:58;2.17;;;2.00;;
10150;SDS011;5116;52.318;4.644;2022-11-20T07:31:26;4.07;;;2.33;;
10150;SDS011;5116;52.318;4.644;2022-11-20T07:33:56;2.87;;;2.00;;
10150;SDS011;5116;52.318;4.644;2022-11-20T07:36:24;2.83;;;2.13;;
10150;SDS011;5116;52.318;4.644;2022-11-20T07:38:51;2.77;;;2.40;;
10150;SDS011;5116;52.318;4.644;2022-11-20T07:41:19;2.97;;;2.57;;
10150;SDS011;5116;52.318;4.644;2022-11-20T07:43:46;3.37;;;2.70;;
10150;SDS011;5116;52.318;4.644;2022-11-20T07:46:16;4.17;;;2.80;;
10150;SDS011;5116;52.318;4.644;2022-11-20T07:48:44;3.33;;;2.70;;
10150;SDS011;5116;52.318;4.644;2022-11-20T07:51:11;2.37;;;2.17;;
10150;SDS011;5116;52.318;4.644;2022-11-20T07:53:40;2.67;;;2.47;;
10150;SDS011;5116;52.318;4.644;2022-11-20T07:56:07;2.33;;;2.13;;
10150;SDS011;5116;52.318;4.644;2022-11-20T07:58:37;2.43;;;2.23;;
10150;SDS011;5116;52.318;4.644;2022-11-20T08:01:07;2.57;;;2.33;;
10150;SDS011;5116;52.318;4.644;2022-11-20T08:03:35;4.30;;;2.87;;
10150;SDS011;5116;52.318;4.644;2022-11-20T08:06:06;2.40;;;2.20;;
10150;SDS011;5116;52.318;4.644;2022-11-20T08:08:36;3.87;;;2.53;;
10150;SDS011;5116;52.318;4.644;2022-11-20T08:11:09;4.40;;;2.20;;
10150;SDS011;5116;52.318;4.644;2022-11-20T08:14:01;3.37;;;2.80;;
10150;SDS011;5116;52.318;4.644;2022-11-20T08:16:43;4.37;;;2.53;;
10150;SDS011;5116;52.318;4.644;2022-11-20T08:19:31;2.50;;;2.20;;
10150;SDS011;5116;52.318;4.644;2022-11-20T08:21:58;3.60;;;2.80;;
10150;SDS011;5116;52.318;4.644;2022-11-20T08:24:25;2.40;;;2.20;;
10150;SDS011;5116;52.318;4.644;2022-11-20T08:26:53;3.00;;;2.43;;
10150;SDS011;5116;52.318;4.644;2022-11-20T08:29:21;2.40;;;2.20;;
10150;SDS011;5116;52.318;4.644;2022-11-20T08:31:51;4.10;;;2.40;;
10150;SDS011;5116;52.318;4.644;2022-11-20T08:34:18;2.57;;;2.33;;
10150;SDS011;5116;52.318;4.644;2022-11-20T08:36:47;3.77;;;2.57;;
10150;SDS011;5116;52.318;4.644;2022-11-20T08:39:17;3.23;;;2.60;;
10150;SDS011;5116;52.318;4.644;2022-11-20T08:41:45;3.23;;;2.40;;
10150;SDS011;5116;52.318;4.644;2022-11-20T08:44:15;4.00;;;2.87;;
10150;SDS011;5116;52.318;4.644;2022-11-20T08:47:04;2.97;;;2.77;;
10150;SDS011;5116;52.318;4.644;2022-11-20T08:49:31;2.30;;;2.10;;
10150;SDS011;5116;52.318;4.644;2022-11-20T08:52:00;3.77;;;2.77;;
10150;SDS011;5116;52.318;4.644;2022-11-20T08:54:28;2.47;;;2.20;;
10150;SDS011;5116;52.318;4.644;2022-11-20T08:56:55;3.27;;;2.13;;
10150;SDS011;5116;52.318;4.644;2022-11-20T08:59:23;2.63;;;2.30;;
10150;SDS011;5116;52.318;4.644;2022-11-20T09:02:13;3.40;;;2.50;;
10150;SDS011;5116;52.318;4.644;2022-11-20T09:04:41;3.30;;;2.90;;
10150;SDS011;5116;52.318;4.644;2022-11-20T09:07:08;2.93;;;2.37;;
10150;SDS011;5116;52.318;4.644;2022-11-20T09:09:38;3.97;;;3.03;;
10150;SDS011;5116;52.318;4.644;2022-11-20T09:12:17;3.23;;;2.60;;
10150;SDS011;5116;52.318;4.644;2022-11-20T09:14:50;3.17;;;2.17;;
10150;SDS011;5116;52.318;4.644;2022-11-20T09:17:20;2.80;;;2.60;;
10150;SDS011;5116;52.318;4.644;2022-11-20T09:19:48;4.80;;;4.00;;
10150;SDS011;5116;52.318;4.644;2022-11-20T09:22:15;3.37;;;2.90;;
10150;SDS011;5116;52.318;4.644;2022-11-20T09:24:44;4.17;;;3.63;;
10150;SDS011;5116;52.318;4.644;2022-11-20T09:27:12;4.43;;;2.53;;
10150;SDS011;5116;52.318;4.644;2022-11-20T09:29:39;3.17;;;2.67;;
10150;SDS011;5116;52.318;4.644;2022-11-20T09:32:07;2.67;;;2.33;;
10150;SDS011;5116;52.318;4.644;2022-11-20T09:34:37;5.57;;;3.07;;
10150;SDS011;5116;52.318;4.644;2022-11-20T09:37:08;3.07;;;2.67;;
10150;SDS011;5116;52.318;4.644;2022-11-20T09:39:35;2.73;;;2.40;;
10150;SDS011;5116;52.318;4.644;2022-11-20T09:45:18;5.77;;;3.23;;
10150;SDS011;5116;52.318;4.644;2022-11-20T09:48:07;2.37;;;2.17;;
10150;SDS011;5116;52.318;4.644;2022-11-20T09:53:23;4.17;;;2.90;;
10150;SDS011;5116;52.318;4.644;2022-11-20T09:55:55;6.07;;;2.70;;
10150;SDS011;5116;52.318;4.644;2022-11-20T09:58:25;3.00;;;2.70;;
10150;SDS011;5116;52.318;4.644;2022-11-20T10:00:56;4.27;;;2.53;;
10150;SDS011;5116;52.318;4.644;2022-11-20T10:03:42;2.87;;;2.63;;
10150;SDS011;5116;52.318;4.644;2022-11-20T10:06:16;4.00;;;2.57;;
10150;SDS011;5116;52.318;4.644;2022-11-20T10:08:47;3.50;;;2.80;;
10150;SDS011;5116;52.318;4.644;2022-11-20T10:11:28;3.40;;;2.53;;
10150;SDS011;5116;52.318;4.644;2022-11-20T10:22:37;4.20;;;3.10;;
10150;SDS011;5116;52.318;4.644;2022-11-20T10:30:14;4.30;;;2.93;;
10150;SDS011;5116;52.318;4.644;2022-11-20T10:32:42;3.97;;;3.27;;
10150;SDS011;5116;52.318;4.644;2022-11-20T10:37:42;4.90;;;3.77;;
10150;SDS011;5116;52.318;4.644;2022-11-20T10:40:31;3.60;;;3.30;;
10150;SDS011;5116;52.318;4.644;2022-11-20T10:43:00;3.80;;;2.30;;
10150;SDS011;5116;52.318;4.644;2022-11-20T10:45:42;4.17;;;2.50;;
10150;SDS011;5116;52.318;4.644;2022-11-20T10:48:15;4.20;;;3.03;;
10150;SDS011;5116;52.318;4.644;2022-11-20T10:50:47;3.17;;;2.70;;
10150;SDS011;5116;52.318;4.644;2022-11-20T10:56:07;4.33;;;3.50;;
10150;SDS011;5116;52.318;4.644;2022-11-20T11:01:17;3.93;;;2.90;;
10150;SDS011;5116;52.318;4.644;2022-11-20T11:03:47;3.53;;;3.20;;
10150;SDS011;5116;52.318;4.644;2022-11-20T11:06:24;3.17;;;2.53;;
10150;SDS011;5116;52.318;4.644;2022-11-20T11:08:58;3.20;;;2.90;;
10150;SDS011;5116;52.318;4.644;2022-11-20T11:11:31;3.63;;;3.17;;
10150;SDS011;5116;52.318;4.644;2022-11-20T11:14:06;4.43;;;3.50;;
10150;SDS011;5116;52.318;4.644;2022-11-20T11:16:34;3.23;;;2.93;;
10150;SDS011;5116;52.318;4.644;2022-11-20T11:19:12;4.30;;;2.83;;
10150;SDS011;5116;52.318;4.644;2022-11-20T11:21:53;2.57;;;2.23;;
10150;SDS011;5116;52.318;4.644;2022-11-20T11:24:26;4.80;;;3.00;;
10150;SDS011;5116;52.318;4.644;2022-11-20T11:27:14;3.30;;;2.50;;
10150;SDS011;5116;52.318;4.644;2022-11-20T11:30:00;4.67;;;3.67;;
10150;SDS011;5116;52.318;4.644;2022-11-20T11:32:28;5.20;;;3.17;;
10150;SDS011;5116;52.318;4.644;2022-11-20T11:35:02;3.83;;;3.03;;
10150;SDS011;5116;52.318;4.644;2022-11-20T11:37:34;7.57;;;3.80;;
10150;SDS011;5116;52.318;4.644;2022-11-20T11:40:05;3.93;;;3.17;;
10150;SDS011;5116;52.318;4.644;2022-11-20T11:42:52;2.83;;;2.40;;
10150;SDS011;5116;52.318;4.644;2022-11-20T11:45:21;3.93;;;3.00;;
10150;SDS011;5116;52.318;4.644;2022-11-20T11:47:51;3.70;;;3.27;;
10150;SDS011;5116;52.318;4.644;2022-11-20T11:50:22;6.10;;;3.17;;
10150;SDS011;5116;52.318;4.644;2022-11-20T11:55:29;4.17;;;2.73;;
10150;SDS011;5116;52.318;4.644;2022-11-20T12:00:51;4.50;;;3.07;;
10150;SDS011;5116;52.318;4.644;2022-11-20T12:03:36;3.70;;;3.37;;
10150;SDS011;5116;52.318;4.644;2022-11-20T12:06:11;5.50;;;3.23;;
10150;SDS011;5116;52.318;4.644;2022-11-20T12:13:58;4.10;;;3.70;;
10150;SDS011;5116;52.318;4.644;2022-11-20T12:16:28;4.40;;;3.03;;
10150;SDS011;5116;52.318;4.644;2022-11-20T12:18:57;5.87;;;3.60;;
10150;SDS011;5116;52.318;4.644;2022-11-20T12:21:34;6.60;;;3.63;;
10150;SDS011;5116;52.318;4.644;2022-11-20T12:27:23;4.93;;;3.03;;
10150;SDS011;5116;52.318;4.644;2022-11-20T12:32:31;7.27;;;4.13;;
10150;SDS011;5116;52.318;4.644;2022-11-20T12:38:08;5.07;;;3.50;;
10150;SDS011;5116;52.318;4.644;2022-11-20T12:43:29;5.70;;;3.00;;
10150;SDS011;5116;52.318;4.644;2022-11-20T12:54:53;4.93;;;3.13;;
10150;SDS011;5116;52.318;4.644;2022-11-20T13:02:19;3.20;;;2.87;;
10150;SDS011;5116;52.318;4.644;2022-11-20T13:05:04;4.80;;;3.07;;
10150;SDS011;5116;52.318;4.644;2022-11-20T13:07:33;3.83;;;2.87;;
10150;SDS011;5116;52.318;4.644;2022-11-20T13:10:03;6.17;;;3.63;;
10150;SDS011;5116;52.318;4.644;2022-11-20T13:12:44;5.30;;;3.67;;
10150;SDS011;5116;52.318;4.644;2022-11-20T13:18:01;4.93;;;3.57;;
10150;SDS011;5116;52.318;4.644;2022-11-20T13:20:31;5.70;;;3.23;;
10150;SDS011;5116;52.318;4.644;2022-11-20T13:23:00;5.13;;;4.03;;
10150;SDS011;5116;52.318;4.644;2022-11-20T13:25:31;5.47;;;2.77;;
10150;SDS011;5116;52.318;4.644;2022-11-20T13:28:00;5.03;;;3.03;;
10150;SDS011;5116;52.318;4.644;2022-11-20T13:33:27;4.73;;;3.20;;
10150;SDS011;5116;52.318;4.644;2022-11-20T13:36:06;4.03;;;3.13;;
10150;SDS011;5116;52.318;4.644;2022-11-20T13:39:29;2.90;;;2.57;;
10150;SDS011;5116;52.318;4.644;2022-11-20T13:42:23;5.45;;;2.80;;
10150;SDS011;5116;52.318;4.644;2022-11-20T13:45:00;5.33;;;4.07;;
10150;SDS011;5116;52.318;4.644;2022-11-20T13:47:46;4.40;;;4.00;;
10150;SDS011;5116;52.318;4.644;2022-11-20T13:50:54;5.10;;;3.40;;
10150;SDS011;5116;52.318;4.644;2022-11-20T13:53:27;8.97;;;4.77;;
10150;SDS011;5116;52.318;4.644;2022-11-20T14:01:56;6.37;;;3.17;;
10150;SDS011;5116;52.318;4.644;2022-11-20T14:04:48;3.67;;;2.63;;
10150;SDS011;5116;52.318;4.644;2022-11-20T14:07:20;4.27;;;2.43;;
10150;SDS011;5116;52.318;4.644;2022-11-20T14:09:52;3.53;;;3.13;;
10150;SDS011;5116;52.318;4.644;2022-11-20T14:12:22;6.10;;;3.37;;
10150;SDS011;5116;52.318;4.644;2022-11-20T14:14:53;3.97;;;3.27;;
10150;SDS011;5116;52.318;4.644;2022-11-20T14:17:22;4.37;;;2.63;;
10150;SDS011;5116;52.318;4.644;2022-11-20T14:20:00;3.10;;;2.53;;
10150;SDS011;5116;52.318;4.644;2022-11-20T14:22:33;5.97;;;3.60;;
10150;SDS011;5116;52.318;4.644;2022-11-20T14:25:20;5.03;;;4.10;;
10150;SDS011;5116;52.318;4.644;2022-11-20T14:28:00;5.83;;;3.87;;
10150;SDS011;5116;52.318;4.644;2022-11-20T14:30:30;6.63;;;3.63;;
10150;SDS011;5116;52.318;4.644;2022-11-20T14:33:24;4.90;;;3.43;;
10150;SDS011;5116;52.318;4.644;2022-11-20T14:35:55;6.40;;;3.73;;
10150;SDS011;5116;52.318;4.644;2022-11-20T14:38:40;5.30;;;3.73;;
10150;SDS011;5116;52.318;4.644;2022-11-20T14:44:15;3.97;;;3.47;;
10150;SDS011;5116;52.318;4.644;2022-11-20T14:46:51;6.47;;;3.50;;
10150;SDS011;5116;52.318;4.644;2022-11-20T14:52:27;4.70;;;3.57;;
10150;SDS011;5116;52.318;4.644;2022-11-20T14:55:13;5.77;;;3.37;;
10150;SDS011;5116;52.318;4.644;2022-11-20T14:57:42;3.43;;;2.93;;
10150;SDS011;5116;52.318;4.644;2022-11-20T15:02:42;4.43;;;3.27;;
10150;SDS011;5116;52.318;4.644;2022-11-20T15:05:12;5.03;;;3.43;;
10150;SDS011;5116;52.318;4.644;2022-11-20T15:07:44;5.43;;;3.53;;
10150;SDS011;5116;52.318;4.644;2022-11-20T15:12:50;5.30;;;3.50;;
10150;SDS011;5116;52.318;4.644;2022-11-20T15:15:24;6.17;;;3.43;;
10150;SDS011;5116;52.318;4.644;2022-11-20T15:17:55;6.43;;;3.30;;
10150;SDS011;5116;52.318;4.644;2022-11-20T15:20:26;5.10;;;3.53;;
10150;SDS011;5116;52.318;4.644;2022-11-20T15:22:54;9.93;;;3.50;;
10150;SDS011;5116;52.318;4.644;2022-11-20T15:25:24;7.37;;;3.93;;
10150;SDS011;5116;52.318;4.644;2022-11-20T15:27:56;5.07;;;3.27;;
10150;SDS011;5116;52.318;4.644;2022-11-20T15:30:24;4.93;;;3.20;;
10150;SDS011;5116;52.318;4.644;2022-11-20T15:32:51;3.77;;;3.30;;
10150;SDS011;5116;52.318;4.644;2022-11-20T15:35:19;7.47;;;3.37;;
10150;SDS011;5116;52.318;4.644;2022-11-20T15:37:47;3.43;;;2.70;;
10150;SDS011;5116;52.318;4.644;2022-11-20T15:40:19;5.63;;;3.20;;
10150;SDS011;5116;52.318;4.644;2022-11-20T15:42:47;4.93;;;4.43;;
10150;SDS011;5116;52.318;4.644;2022-11-20T15:48:04;5.93;;;4.37;;
10150;SDS011;5116;52.318;4.644;2022-11-20T15:50:34;6.00;;;3.50;;
10150;SDS011;5116;52.318;4.644;2022-11-20T15:53:03;7.73;;;3.57;;
10150;SDS011;5116;52.318;4.644;2022-11-20T15:55:33;5.67;;;3.43;;
10150;SDS011;5116;52.318;4.644;2022-11-20T15:58:01;5.43;;;3.93;;
10150;SDS011;5116;52.318;4.644;2022-11-20T16:00:28;6.77;;;2.83;;
10150;SDS011;5116;52.318;4.644;2022-11-20T16:02:56;6.17;;;3.23;;
10150;SDS011;5116;52.318;4.644;2022-11-20T16:05:23;5.87;;;3.33;;
10150;SDS011;5116;52.318;4.644;2022-11-20T16:07:50;5.27;;;3.40;;
10150;SDS011;5116;52.318;4.644;2022-11-20T16:10:20;7.07;;;3.97;;
10150;SDS011;5116;52.318;4.644;2022-11-20T16:12:48;5.03;;;3.47;;
10150;SDS011;5116;52.318;4.644;2022-11-20T16:15:34;5.10;;;3.40;;
10150;SDS011;5116;52.318;4.644;2022-11-20T16:18:15;4.50;;;2.50;;
10150;SDS011;5116;52.318;4.644;2022-11-20T16:20:43;8.30;;;5.70;;
10150;SDS011;5116;52.318;4.644;2022-11-20T16:23:10;4.33;;;3.53;;
10150;SDS011;5116;52.318;4.644;2022-11-20T16:25:39;4.13;;;3.43;;
10150;SDS011;5116;52.318;4.644;2022-11-20T16:28:07;3.87;;;3.33;;
10150;SDS011;5116;52.318;4.644;2022-11-20T16:30:34;4.13;;;2.47;;
10150;SDS011;5116;52.318;4.644;2022-11-20T16:33:02;5.07;;;3.50;;
10150;SDS011;5116;52.318;4.644;2022-11-20T16:35:30;5.63;;;3.83;;
10150;SDS011;5116;52.318;4.644;2022-11-20T16:37:59;4.37;;;3.27;;
10150;SDS011;5116;52.318;4.644;2022-11-20T16:40:26;4.40;;;3.13;;
10150;SDS011;5116;52.318;4.644;2022-11-20T16:42:54;4.43;;;3.10;;
10150;SDS011;5116;52.318;4.644;2022-11-20T16:45:23;4.53;;;3.03;;
10150;SDS011;5116;52.318;4.644;2022-11-20T16:47:58;6.03;;;3.37;;
10150;SDS011;5116;52.318;4.644;2022-11-20T16:50:25;4.33;;;2.90;;
10150;SDS011;5116;52.318;4.644;2022-11-20T16:52:53;5.43;;;3.57;;
10150;SDS011;5116;52.318;4.644;2022-11-20T16:55:23;3.43;;;3.20;;